createdAt,value
2023-01-21T00:02:23.394Z,64.53
2023-01-21T00:04:49.873Z,65.09
2023-01-21T00:07:16.360Z,64.51
2023-01-21T00:09:42.821Z,64.89
2023-01-21T00:12:09.277Z,64.23
2023-01-21T00:14:35.696Z,63.12
2023-01-21T00:17:02.080Z,66.15
2023-01-21T00:19:29.574Z,64.53
2023-01-21T00:21:56.013Z,63.61
2023-01-21T00:24:25.235Z,65.19
2023-01-21T00:26:52.892Z,65.65
2023-01-21T00:29:20.204Z,64.36
2023-01-21T00:31:46.669Z,64.46
2023-01-21T00:34:13.306Z,64.40
2023-01-21T00:36:39.751Z,63.64
2023-01-21T00:39:07.891Z,64.07
2023-01-21T00:41:34.373Z,65.39
2023-01-21T00:44:00.808Z,63.63
2023-01-21T00:46:27.739Z,64.28
2023-01-21T00:48:56.029Z,64.63
2023-01-21T00:51:23.501Z,66.29
2023-01-21T00:53:50.009Z,65.08
2023-01-21T00:56:16.408Z,67.44
2023-01-21T00:58:46.163Z,66.63
2023-01-21T01:01:18.671Z,65.55
2023-01-21T01:03:46.651Z,65.27
2023-01-21T01:06:22.280Z,65.38
2023-01-21T01:08:52.586Z,65.69
2023-01-21T01:11:21.516Z,64.11
2023-01-21T01:13:47.967Z,66.80
2023-01-21T01:16:16.436Z,66.34
2023-01-21T01:18:43.569Z,68.38
2023-01-21T01:21:15.953Z,66.76
2023-01-21T01:23:42.903Z,64.96
2023-01-21T01:26:15.522Z,64.37
2023-01-21T01:28:42.685Z,63.57
2023-01-21T01:31:12.930Z,63.88
2023-01-21T01:33:40.113Z,64.08
2023-01-21T01:36:10.542Z,63.59
2023-01-21T01:38:36.942Z,66.44
2023-01-21T01:41:04.348Z,66.65
2023-01-21T01:43:51.322Z,64.99
2023-01-21T01:46:17.985Z,66.53
2023-01-21T01:48:48.724Z,68.71
2023-01-21T01:51:17.785Z,66.60
2023-01-21T01:53:45.482Z,67.82
2023-01-21T01:56:12.371Z,72.91
2023-01-21T01:58:39.876Z,70.14
2023-01-21T02:01:06.626Z,71.32
2023-01-21T02:03:49.227Z,69.61
2023-01-21T02:06:17.707Z,68.91
2023-01-21T02:08:47.685Z,72.86
2023-01-21T02:11:19.795Z,72.13
2023-01-21T02:13:53.284Z,71.77
2023-01-21T02:17:01.054Z,72.03
2023-01-21T02:19:51.903Z,70.52
2023-01-21T02:22:30.744Z,71.29
2023-01-21T02:25:21.377Z,69.84
2023-01-21T02:28:05.965Z,69.42
2023-01-21T02:30:47.201Z,71.65
2023-01-21T02:33:22.606Z,73.11
2023-01-21T02:36:15.169Z,72.93
2023-01-21T02:38:53.641Z,73.56
2023-01-21T02:41:56.130Z,74.71
2023-01-21T02:44:37.373Z,74.22
2023-01-21T02:47:09.540Z,72.57
2023-01-21T02:49:59.606Z,74.29
2023-01-21T02:52:26.406Z,70.98
2023-01-21T02:54:55.832Z,74.34
2023-01-21T02:57:47.058Z,72.47
2023-01-21T03:00:22.221Z,71.71
2023-01-21T03:03:13.278Z,68.48
2023-01-21T03:06:01.211Z,66.33
2023-01-21T03:08:40.643Z,67.21
2023-01-21T03:11:16.838Z,64.97
2023-01-21T03:14:07.960Z,67.17
2023-01-21T03:16:59.403Z,66.41
2023-01-21T03:19:35.583Z,65.94
2023-01-21T03:22:06.606Z,66.15
2023-01-21T03:24:34.545Z,66.30
2023-01-21T03:27:02.584Z,67.25
2023-01-21T03:29:30.925Z,67.87
2023-01-21T03:32:03.917Z,66.75
2023-01-21T03:34:34.595Z,66.75
2023-01-21T03:37:21.225Z,69.75
2023-01-21T03:39:59.800Z,71.98
2023-01-21T03:42:27.081Z,69.30
2023-01-21T03:44:53.951Z,68.25
2023-01-21T03:47:31.280Z,67.13
2023-01-21T03:50:13.659Z,68.62
2023-01-21T03:52:41.564Z,69.75
2023-01-21T03:55:08.747Z,70.04
2023-01-21T03:57:35.254Z,67.86
2023-01-21T04:00:02.167Z,67.70
2023-01-21T04:02:28.670Z,70.35
2023-01-21T04:04:55.118Z,67.44
2023-01-21T04:07:21.592Z,66.78
2023-01-21T04:09:49.768Z,68.67
2023-01-21T04:12:16.771Z,66.52
2023-01-21T04:14:43.332Z,64.22
2023-01-21T04:17:09.875Z,63.57
2023-01-21T04:19:36.314Z,63.19
2023-01-21T04:22:02.750Z,62.08
2023-01-21T04:24:29.167Z,64.06
2023-01-21T04:26:55.645Z,64.14
2023-01-21T04:29:22.309Z,63.19
2023-01-21T04:31:48.909Z,66.16
2023-01-21T04:34:16.675Z,66.59
2023-01-21T04:36:43.100Z,64.85
2023-01-21T04:39:11.255Z,62.96
2023-01-21T04:41:37.690Z,65.99
2023-01-21T04:44:04.254Z,66.79
2023-01-21T04:46:30.658Z,66.99
2023-01-21T04:48:57.067Z,66.75
2023-01-21T04:51:23.462Z,67.52
2023-01-21T04:53:49.889Z,69.36
2023-01-21T04:56:16.338Z,69.27
2023-01-21T04:58:42.841Z,68.92
2023-01-21T05:01:09.361Z,68.44
2023-01-21T05:03:35.804Z,68.93
2023-01-21T05:06:02.223Z,69.85
2023-01-21T05:08:28.635Z,66.88
2023-01-21T05:10:55.057Z,66.26
2023-01-21T05:13:21.501Z,71.03
2023-01-21T05:15:47.959Z,70.86
2023-01-21T05:18:14.462Z,73.08
2023-01-21T05:20:40.899Z,73.20
2023-01-21T05:23:07.482Z,71.04
2023-01-21T05:25:34.067Z,73.08
2023-01-21T05:28:00.557Z,72.50
2023-01-21T05:30:27.085Z,73.19
2023-01-21T05:32:54.765Z,72.99
2023-01-21T05:35:22.828Z,74.23
2023-01-21T05:37:49.379Z,73.05
2023-01-21T05:40:16.935Z,75.77
2023-01-21T05:42:44.287Z,73.86
2023-01-21T05:45:14.261Z,72.71
2023-01-21T05:47:40.739Z,70.51
2023-01-21T05:50:07.953Z,74.80
2023-01-21T05:52:34.386Z,73.11
2023-01-21T05:55:02.454Z,71.70
2023-01-21T05:57:30.278Z,75.33
2023-01-21T05:59:56.924Z,74.17
2023-01-21T06:02:24.950Z,73.57
2023-01-21T06:04:51.392Z,73.24
2023-01-21T06:07:18.771Z,73.25
2023-01-21T06:09:45.255Z,75.00
2023-01-21T06:12:11.671Z,70.10
2023-01-21T06:14:38.098Z,67.23
2023-01-21T06:17:04.632Z,71.11
2023-01-21T06:19:31.183Z,76.52
2023-01-21T06:21:57.622Z,73.00
2023-01-21T06:24:24.032Z,75.17
2023-01-21T06:26:50.416Z,74.19
2023-01-21T06:29:16.956Z,71.55
2023-01-21T06:31:43.447Z,72.17
2023-01-21T06:34:12.459Z,74.80
2023-01-21T06:36:40.858Z,73.80
2023-01-21T06:39:07.283Z,75.25
2023-01-21T06:41:33.728Z,72.60
2023-01-21T06:44:00.145Z,71.72
2023-01-21T06:46:26.659Z,73.05
2023-01-21T06:48:54.276Z,73.57
2023-01-21T06:51:20.756Z,72.40
2023-01-21T06:53:47.213Z,74.77
2023-01-21T06:56:13.638Z,74.88
2023-01-21T06:58:40.024Z,74.69
2023-01-21T07:01:06.491Z,69.33
2023-01-21T07:03:32.962Z,68.70
2023-01-21T07:05:59.381Z,72.48
2023-01-21T07:08:25.802Z,72.89
2023-01-21T07:10:52.298Z,72.33
2023-01-21T07:13:18.697Z,71.73
2023-01-21T07:15:45.147Z,68.14
2023-01-21T07:18:11.569Z,69.52
2023-01-21T07:20:40.913Z,69.07
2023-01-21T07:23:07.429Z,68.21
2023-01-21T07:25:36.024Z,71.89
2023-01-21T07:28:02.491Z,70.99
2023-01-21T07:30:28.896Z,70.77
2023-01-21T07:32:55.316Z,70.61
2023-01-21T07:35:21.738Z,70.48
2023-01-21T07:37:48.178Z,70.34
2023-01-21T07:40:14.698Z,70.85
2023-01-21T07:42:41.096Z,66.60
2023-01-21T07:45:08.509Z,69.07
2023-01-21T07:47:34.982Z,68.64
2023-01-21T07:50:04.983Z,66.33
2023-01-21T07:52:32.163Z,70.38
2023-01-21T07:54:58.627Z,68.98
2023-01-21T07:57:25.099Z,69.70
2023-01-21T07:59:51.493Z,70.66
2023-01-21T08:02:17.948Z,70.12
2023-01-21T08:04:44.451Z,66.36
2023-01-21T08:07:13.184Z,67.15
2023-01-21T08:09:40.119Z,68.14
2023-01-21T08:12:07.499Z,67.08
2023-01-21T08:14:34.355Z,67.64
2023-01-21T08:17:01.155Z,68.25
2023-01-21T08:19:27.599Z,66.18
2023-01-21T08:21:54.037Z,65.84
2023-01-21T08:24:20.493Z,65.58
2023-01-21T08:26:46.936Z,67.53
2023-01-21T08:29:13.337Z,66.73
2023-01-21T08:31:39.931Z,64.99
2023-01-21T08:34:06.430Z,62.83
2023-01-21T08:36:32.937Z,64.28
2023-01-21T08:39:01.778Z,65.21
2023-01-21T08:41:28.331Z,65.69
2023-01-21T08:43:54.706Z,64.54
2023-01-21T08:46:21.138Z,64.58
2023-01-21T08:48:47.577Z,63.99
2023-01-21T08:51:14.139Z,62.92
2023-01-21T08:53:40.599Z,65.92
2023-01-21T08:56:07.132Z,66.19
2023-01-21T08:58:33.803Z,68.06
2023-01-21T09:01:07.682Z,63.71
2023-01-21T09:03:34.159Z,63.46
2023-01-21T09:06:02.124Z,62.56
2023-01-21T09:08:29.273Z,63.17
2023-01-21T09:11:02.515Z,63.17
2023-01-21T09:13:37.839Z,61.79
2023-01-21T09:16:15.676Z,64.29
2023-01-21T09:18:43.093Z,64.94
2023-01-21T09:21:10.856Z,62.22
2023-01-21T09:23:38.534Z,61.76
2023-01-21T09:26:18.284Z,62.62
2023-01-21T09:28:47.827Z,64.45
2023-01-21T09:31:16.748Z,61.94
2023-01-21T09:33:45.667Z,62.93
2023-01-21T09:36:21.968Z,64.67
2023-01-21T09:38:49.634Z,63.41
2023-01-21T09:41:24.844Z,65.17
2023-01-21T09:44:06.012Z,64.92
2023-01-21T09:46:53.038Z,63.87
2023-01-21T09:49:28.033Z,64.05
2023-01-21T09:52:24.491Z,63.34
2023-01-21T09:54:51.095Z,62.04
2023-01-21T09:57:26.301Z,63.33
2023-01-21T10:00:18.477Z,62.86
2023-01-21T10:03:16.261Z,61.64
2023-01-21T10:05:50.724Z,62.83
2023-01-21T10:08:38.416Z,62.11
2023-01-21T10:11:46.059Z,62.37
2023-01-21T10:14:24.972Z,62.94
2023-01-21T10:17:10.205Z,64.02
2023-01-21T10:19:46.327Z,61.92
2023-01-21T10:22:17.260Z,63.05
2023-01-21T10:24:49.664Z,64.88
2023-01-21T10:27:21.219Z,63.96
2023-01-21T10:29:52.727Z,61.72
2023-01-21T10:32:24.555Z,61.97
2023-01-21T10:34:52.820Z,62.65
2023-01-21T10:37:41.060Z,64.01
2023-01-21T10:40:48.541Z,64.18
2023-01-21T10:43:46.423Z,64.79
2023-01-21T10:46:31.308Z,62.66
2023-01-21T10:49:20.732Z,62.63
2023-01-21T10:52:03.617Z,64.29
2023-01-21T10:54:51.856Z,64.87
2023-01-21T10:57:33.496Z,64.65
2023-01-21T11:00:02.711Z,62.29
2023-01-21T11:02:34.059Z,65.42
2023-01-21T11:05:04.311Z,62.94
2023-01-21T11:07:38.947Z,62.26
2023-01-21T11:10:07.117Z,63.17
2023-01-21T11:12:33.584Z,63.99
2023-01-21T11:15:12.361Z,61.48
2023-01-21T11:17:41.451Z,64.63
2023-01-21T11:20:28.206Z,61.36
2023-01-21T11:22:54.992Z,61.31
2023-01-21T11:25:31.907Z,62.42
2023-01-21T11:27:58.314Z,61.54
2023-01-21T11:30:50.943Z,61.22
2023-01-21T11:33:27.514Z,60.71
2023-01-21T11:35:55.203Z,64.12
2023-01-21T11:38:35.318Z,60.49
2023-01-21T11:41:01.709Z,60.70
2023-01-21T11:43:40.070Z,60.88
2023-01-21T11:46:35.427Z,62.98
2023-01-21T11:49:08.064Z,62.54
2023-01-21T11:51:42.383Z,59.28
2023-01-21T11:54:23.337Z,63.51
2023-01-21T11:56:52.602Z,61.10
2023-01-21T11:59:25.960Z,60.84
2023-01-21T12:02:15.920Z,63.54
2023-01-21T12:04:52.297Z,60.75
2023-01-21T12:07:32.064Z,59.34
2023-01-21T12:10:14.534Z,59.27
2023-01-21T12:12:59.231Z,60.87
2023-01-21T12:15:56.174Z,60.28
2023-01-21T12:18:25.617Z,60.40
2023-01-21T12:21:05.441Z,63.60
2023-01-21T12:23:41.013Z,62.23
2023-01-21T12:26:36.687Z,61.51
2023-01-21T12:29:24.997Z,61.00
2023-01-21T12:32:05.936Z,58.19
2023-01-21T12:34:40.006Z,58.54
2023-01-21T12:37:12.479Z,56.98
2023-01-21T12:39:40.996Z,55.80
2023-01-21T12:42:29.181Z,59.56
2023-01-21T12:45:01.326Z,57.93
2023-01-21T12:47:36.011Z,56.69
2023-01-21T12:50:35.160Z,60.93
2023-01-21T12:53:44.460Z,60.41
2023-01-21T12:56:37.272Z,60.25
2023-01-21T12:59:15.954Z,60.48
2023-01-21T13:01:52.511Z,57.98
2023-01-21T13:04:42.073Z,61.56
2023-01-21T13:07:31.872Z,60.03
2023-01-21T13:10:15.426Z,60.67
2023-01-21T13:12:46.362Z,57.31
2023-01-21T13:15:18.606Z,57.96
2023-01-21T13:17:52.222Z,61.97
2023-01-21T13:20:21.316Z,60.24
2023-01-21T13:23:20.149Z,61.53
2023-01-21T13:25:56.992Z,59.40
2023-01-21T13:28:29.074Z,57.48
2023-01-21T13:31:20.092Z,58.97
2023-01-21T13:33:47.430Z,57.53
2023-01-21T13:36:29.340Z,59.25
2023-01-21T13:39:11.173Z,57.29
2023-01-21T13:41:54.340Z,58.34
2023-01-21T13:44:56.783Z,58.59
2023-01-21T13:47:29.794Z,58.75
2023-01-21T13:50:18.087Z,55.88
2023-01-21T13:53:23.237Z,60.12
2023-01-21T13:56:07.711Z,58.06
2023-01-21T13:58:53.530Z,58.98
2023-01-21T14:01:23.065Z,59.04
2023-01-21T14:04:15.737Z,57.94
2023-01-21T14:07:03.996Z,58.28
2023-01-21T14:09:38.681Z,59.36
2023-01-21T14:12:20.935Z,59.66
2023-01-21T14:15:19.887Z,59.03
2023-01-21T14:18:12.802Z,58.92
2023-01-21T14:21:07.177Z,56.63
2023-01-21T14:23:49.487Z,59.11
2023-01-21T14:26:48.298Z,56.92
2023-01-21T14:29:23.276Z,60.74
2023-01-21T14:32:03.789Z,61.22
2023-01-21T14:34:39.501Z,56.80
2023-01-21T14:37:30.794Z,58.31
2023-01-21T14:40:17.033Z,58.32
2023-01-21T14:42:49.387Z,57.03
2023-01-21T14:45:25.706Z,55.48
2023-01-21T14:47:54.251Z,57.61
2023-01-21T14:50:55.063Z,58.80
2023-01-21T14:53:26.174Z,57.42
2023-01-21T14:56:26.596Z,57.24
2023-01-21T14:59:06.488Z,56.60
2023-01-21T15:01:47.056Z,56.38
2023-01-21T15:04:23.167Z,55.70
2023-01-21T15:06:51.893Z,56.31
2023-01-21T15:09:28.378Z,57.58
2023-01-21T15:12:05.624Z,56.26
2023-01-21T15:14:39.121Z,57.60
2023-01-21T15:17:45.038Z,57.84
2023-01-21T15:20:39.480Z,56.95
2023-01-21T15:23:36.151Z,59.02
2023-01-21T15:26:02.560Z,57.62
2023-01-21T15:28:55.689Z,59.68
2023-01-21T15:31:23.277Z,61.36
2023-01-21T15:33:55.388Z,62.04
2023-01-21T15:36:24.870Z,60.24
2023-01-21T15:38:54.083Z,59.51
2023-01-21T15:41:56.327Z,58.82
2023-01-21T15:44:48.052Z,62.72
2023-01-21T15:47:30.135Z,59.32
2023-01-21T15:50:18.063Z,62.28
2023-01-21T15:53:09.563Z,61.44
2023-01-21T15:56:08.314Z,62.28
2023-01-21T15:58:43.895Z,62.91
2023-01-21T16:01:26.769Z,61.42
2023-01-21T16:04:11.320Z,61.97
2023-01-21T16:07:02.527Z,61.71
2023-01-21T16:09:35.043Z,62.63
2023-01-21T16:12:14.665Z,62.05
2023-01-21T16:15:24.345Z,61.16
2023-01-21T16:17:59.792Z,59.58
2023-01-21T16:20:26.271Z,66.09
2023-01-21T16:22:56.782Z,65.85
2023-01-21T16:25:25.396Z,61.89
2023-01-21T16:27:53.746Z,61.49
2023-01-21T16:30:22.692Z,65.89
2023-01-21T16:33:13.607Z,62.35
2023-01-21T16:35:56.015Z,63.95
2023-01-21T16:38:26.901Z,65.39
2023-01-21T16:41:08.357Z,63.53
2023-01-21T16:44:04.208Z,62.26
2023-01-21T16:46:36.196Z,65.44
2023-01-21T16:49:04.921Z,62.73
2023-01-21T16:51:34.721Z,61.52
2023-01-21T16:54:19.648Z,64.12
2023-01-21T16:56:53.429Z,62.41
2023-01-21T16:59:42.527Z,62.11
2023-01-21T17:02:31.464Z,63.29
2023-01-21T17:05:00.274Z,63.54
2023-01-21T17:07:41.972Z,62.01
2023-01-21T17:10:19.516Z,64.10
2023-01-21T17:13:07.254Z,67.44
2023-01-21T17:15:41.716Z,66.70
2023-01-21T17:18:31.364Z,66.25
2023-01-21T17:21:08.962Z,68.76
2023-01-21T17:23:51.452Z,64.83
2023-01-21T17:26:45.591Z,65.79
2023-01-21T17:29:20.206Z,65.72
2023-01-21T17:31:55.848Z,67.54
2023-01-21T17:34:24.727Z,68.40
2023-01-21T17:36:52.746Z,69.39
2023-01-21T17:39:48.086Z,68.15
2023-01-21T17:42:22.682Z,65.71
2023-01-21T17:44:53.377Z,67.11
2023-01-21T17:47:33.617Z,66.57
2023-01-21T17:50:21.102Z,68.73
2023-01-21T17:52:56.204Z,67.28
2023-01-21T17:55:27.236Z,67.44
2023-01-21T17:57:54.326Z,68.95
2023-01-21T18:00:26.681Z,67.92
2023-01-21T18:02:53.377Z,67.73
2023-01-21T18:05:19.905Z,69.90
2023-01-21T18:07:46.420Z,69.58
2023-01-21T18:10:19.582Z,70.61
2023-01-21T18:12:46.141Z,67.00
2023-01-21T18:15:14.718Z,67.71
2023-01-21T18:17:46.501Z,67.02
2023-01-21T18:20:27.145Z,68.20
2023-01-21T18:22:55.385Z,67.61
2023-01-21T18:25:23.565Z,68.46
2023-01-21T18:27:54.906Z,66.24
2023-01-21T18:30:28.595Z,65.93
2023-01-21T18:32:56.373Z,67.99
2023-01-21T18:35:27.315Z,67.84
2023-01-21T18:37:54.067Z,68.76
2023-01-21T18:40:22.693Z,65.62
2023-01-21T18:42:52.222Z,66.07
2023-01-21T18:45:22.396Z,68.49
2023-01-21T18:47:50.419Z,67.44
2023-01-21T18:50:22.447Z,67.04
2023-01-21T18:52:49.113Z,67.41
2023-01-21T18:55:17.338Z,68.02
2023-01-21T18:57:46.630Z,67.27
2023-01-21T19:00:19.572Z,66.28
2023-01-21T19:02:46.632Z,69.26
2023-01-21T19:05:13.185Z,68.08
2023-01-21T19:07:39.574Z,66.54
2023-01-21T19:10:06.912Z,65.52
2023-01-21T19:12:33.329Z,66.22
2023-01-21T19:15:00.062Z,67.55
2023-01-21T19:17:29.680Z,66.05
2023-01-21T19:19:57.108Z,66.89
2023-01-21T19:22:23.751Z,68.99
2023-01-21T19:24:50.541Z,66.14
2023-01-21T19:27:29.108Z,65.65
2023-01-21T19:29:55.764Z,65.28
2023-01-21T19:32:22.226Z,67.30
2023-01-21T19:34:48.665Z,65.66
2023-01-21T19:37:18.303Z,66.28
2023-01-21T19:39:44.834Z,66.89
2023-01-21T19:42:13.428Z,68.11
2023-01-21T19:44:40.649Z,71.89
2023-01-21T19:47:17.443Z,71.09
2023-01-21T19:49:44.359Z,71.03
2023-01-21T19:52:13.950Z,71.28
2023-01-21T19:54:40.504Z,73.95
2023-01-21T19:57:13.567Z,72.53
2023-01-21T19:59:41.177Z,77.56
2023-01-21T20:02:10.705Z,76.77
2023-01-21T20:04:37.732Z,78.36
2023-01-21T20:07:04.697Z,76.83
2023-01-21T20:09:32.075Z,78.13
2023-01-21T20:11:58.489Z,75.70
2023-01-21T20:14:24.959Z,75.64
2023-01-21T20:16:54.151Z,73.48
2023-01-21T20:19:22.501Z,75.79
2023-01-21T20:22:01.318Z,75.33
2023-01-21T20:24:30.101Z,76.80
2023-01-21T20:26:57.034Z,75.72
2023-01-21T20:29:23.506Z,73.36
2023-01-21T20:31:51.868Z,73.75
2023-01-21T20:34:18.378Z,72.31
2023-01-21T20:36:48.306Z,70.67
2023-01-21T20:39:15.088Z,74.54
2023-01-21T20:41:43.287Z,74.75
2023-01-21T20:44:09.731Z,73.00
2023-01-21T20:46:36.203Z,76.50
2023-01-21T20:49:02.854Z,77.08
2023-01-21T20:51:29.637Z,78.14
2023-01-21T20:53:56.096Z,77.53
2023-01-21T20:56:26.970Z,74.80
2023-01-21T20:58:54.126Z,75.95
2023-01-21T21:01:22.917Z,80.79
2023-01-21T21:03:49.954Z,80.14
2023-01-21T21:06:28.680Z,77.32
2023-01-21T21:08:55.478Z,77.62
2023-01-21T21:11:22.058Z,77.18
2023-01-21T21:13:51.783Z,77.72
2023-01-21T21:16:21.703Z,80.74
2023-01-21T21:18:48.851Z,77.42
2023-01-21T21:21:16.661Z,76.60
2023-01-21T21:23:46.570Z,77.03
2023-01-21T21:26:18.366Z,79.41
2023-01-21T21:28:45.896Z,80.25
2023-01-21T21:31:17.249Z,79.47
2023-01-21T21:33:43.897Z,80.39
2023-01-21T21:36:13.647Z,78.69
2023-01-21T21:38:40.374Z,77.55
2023-01-21T21:41:25.390Z,84.00
2023-01-21T21:43:51.785Z,78.87
2023-01-21T21:46:36.489Z,80.44
2023-01-21T21:49:02.894Z,78.64
2023-01-21T21:51:31.664Z,82.23
2023-01-21T21:53:58.097Z,79.69
2023-01-21T21:56:24.577Z,81.71
2023-01-21T21:58:51.447Z,80.07
2023-01-21T22:01:20.527Z,79.50
2023-01-21T22:03:47.304Z,78.54
2023-01-21T22:06:14.644Z,78.76
2023-01-21T22:08:42.598Z,81.62
2023-01-21T22:11:15.040Z,80.97
2023-01-21T22:13:43.435Z,80.75
2023-01-21T22:16:14.939Z,81.32
2023-01-21T22:18:41.982Z,78.48
2023-01-21T22:21:16.771Z,81.67
2023-01-21T22:23:43.433Z,81.23
2023-01-21T22:26:15.323Z,81.84
2023-01-21T22:28:43.312Z,80.04
2023-01-21T22:31:13.725Z,81.25
2023-01-21T22:33:40.409Z,79.96
2023-01-21T22:36:09.396Z,81.10
2023-01-21T22:38:38.971Z,82.93
2023-01-21T22:41:07.695Z,83.98
2023-01-21T22:43:34.747Z,83.35
2023-01-21T22:46:01.714Z,81.05
2023-01-21T22:48:28.312Z,83.67
2023-01-21T22:50:57.143Z,79.51
2023-01-21T22:53:24.452Z,80.55
2023-01-21T22:55:59.939Z,80.64
2023-01-21T22:58:28.330Z,78.65
2023-01-21T23:00:55.574Z,79.97
2023-01-21T23:03:22.938Z,80.94
2023-01-21T23:05:50.241Z,81.62
2023-01-21T23:08:17.729Z,82.01
2023-01-21T23:10:45.022Z,79.38
2023-01-21T23:13:15.933Z,80.38
2023-01-21T23:15:43.891Z,81.50
2023-01-21T23:18:10.567Z,79.76
2023-01-21T23:20:37.254Z,83.11
2023-01-21T23:23:03.659Z,83.08
2023-01-21T23:25:30.052Z,80.78
2023-01-21T23:27:56.471Z,83.26
2023-01-21T23:30:22.863Z,85.12
2023-01-21T23:32:49.268Z,83.61
2023-01-21T23:35:15.892Z,82.67
2023-01-21T23:37:42.282Z,84.69
2023-01-21T23:40:09.158Z,82.55
2023-01-21T23:42:35.542Z,80.59
2023-01-21T23:45:02.308Z,79.96
2023-01-21T23:47:29.026Z,82.72
2023-01-21T23:49:55.439Z,85.24
2023-01-21T23:52:21.829Z,84.04
2023-01-21T23:54:48.209Z,84.05
2023-01-21T23:57:14.674Z,84.95
2023-01-21T23:59:41.157Z,82.99
